MSC Regina — 3FGF9 — position and weather

sailwx.info

Track history (hours):
 
Tides and Currents Weather Stations Pressure Air Temp Water Temp Dewpoint Dewpoint Depression Visibility Wind Speed Wind Dir Waves Ship Positions

MSC Regina

Last reported at 2014-Sep-01 06:31 UTC. Time now 2014-Sep-01 07:34 UTC.
Position N 37°50' W 008°56'.

Length 259 m; draft 8.6 m.

Type: Ship (hazmat cat A). MMSI: 357332000.

Date/timePositionNaut miles runAvg speedWind from/ knotsBaromVisibWave heightAir tempDewpointWater temp
2014-Sep-01 06:31N 37°50' W 008°56'6 6.4
2014-Sep-01 05:33N 37°44' W 008°56'1010.2
2014-Sep-01 04:33N 37°35' W 009°01'1212.0
2014-Sep-01 03:33N 37°24' W 009°08'1312.9
2014-Sep-01 02:33N 37°12' W 009°14'1312.7
2014-Sep-01 01:33N 37°01' W 009°21'1211.7
2014-Sep-01 00:33N 36°50' W 009°16'1211.9
2014-Aug-31 23:33N 36°43' W 009°04'1212.5
2014-Aug-31 22:33N 36°39' W 008°49'1312.6
2014-Aug-31 21:33N 36°35' W 008°34'1312.5
2014-Aug-31 20:33N 36°31' W 008°20'1312.5
2014-Aug-31 19:33N 36°27' W 008°05'1312.7
2014-Aug-31 18:33N 36°24' W 007°50'1312.9
2014-Aug-31 17:32N 36°19' W 007°34'10912.9
2014-Aug-31 09:07N 36°01' W 005°22'23512.7
2014-Aug-30 14:33N 37°25' W 000°47'1414.1
2014-Aug-30 13:33N 37°34' W 000°34'1413.9
2014-Aug-30 12:33N 37°46' W 000°24'1413.9
2014-Aug-30 11:33N 37°57' W 000°15'6312.6
2014-Aug-30 06:33N 38°57' E 000°13'3315.1
2014-Aug-30 04:22N 39°23' W 000°13'6 5.6
2014-Aug-30 03:17N 39°26' W 000°20'0 0.0
2014-Aug-30 02:32N 39°26' W 000°20'0 0.0
2014-Aug-30 01:32N 39°26' W 000°20'0 0.0
2014-Aug-30 00:32N 39°26' W 000°20'0 0.0
2014-Aug-29 23:32N 39°26' W 000°20'0 0.0
2014-Aug-29 22:20N 39°26' W 000°20'0 0.0
2014-Aug-29 21:11N 39°26' W 000°20'0 0.0
2014-Aug-29 20:26N 39°26' W 000°20'0 0.0
2014-Aug-29 19:26N 39°26' W 000°20'0 0.0
2014-Aug-29 18:32N 39°26' W 000°20'0 0.3
2014-Aug-29 17:32N 39°26' W 000°19'0 0.0
2014-Aug-29 16:32N 39°26' W 000°19'0 0.0
2014-Aug-29 15:32N 39°26' W 000°19'0 0.0
2014-Aug-29 14:29N 39°26' W 000°19'0 0.0
2014-Aug-29 13:32N 39°26' W 000°19'0 0.0
2014-Aug-29 12:32N 39°26' W 000°19'0 0.0
2014-Aug-29 11:08N 39°26' W 000°19'0 0.0
2014-Aug-29 10:32N 39°26' W 000°19'0 0.0
2014-Aug-29 06:32N 39°26' W 000°19'0 0.0
2014-Aug-29 05:34N 39°26' W 000°19'4 4.2
2014-Aug-29 04:34N 39°25' W 000°14'8 8.5
2014-Aug-29 03:34N 39°29' W 000°04'3315.8
2014-Aug-29 01:29N 39°42' E 000°35'1616.3
2014-Aug-29 00:30N 39°50' E 000°53'1616.6
2014-Aug-28 23:33N 39°58' E 001°11'1816.3
2014-Aug-28 22:27N 40°08' E 001°31'1516.3
2014-Aug-28 21:33N 40°16' E 001°47'1716.6
2014-Aug-28 20:33N 40°24' E 002°05'1817.5
2014-Aug-28 19:33N 40°34' E 002°25'1717.5
2014-Aug-28 18:33N 40°43' E 002°44'1717.1
2014-Aug-28 17:33N 40°52' E 003°03'1717.1
2014-Aug-28 16:33N 41°01' E 003°23'1717.1
2014-Aug-28 15:32N 41°10' E 003°42'1717.3
2014-Aug-28 14:33N 41°19' E 004°02'1616.3
2014-Aug-28 13:33N 41°28' E 004°20'2118.6
2014-Aug-28 12:25N 41°39' E 004°44'1315.1
2014-Aug-28 11:33N 41°46' E 004°58'1917.7
2014-Aug-28 10:29N 41°56' E 005°20'1917.9
2014-Aug-28 09:25N 42°06' E 005°42'1416.3
2014-Aug-28 08:33N 42°14' E 005°58'1919.1
2014-Aug-28 07:33N 42°24' E 006°20'1615.9
2014-Aug-28 06:33N 42°32' E 006°38'3718.3
2014-Aug-28 04:34N 42°52' E 007°20'2018.5
2014-Aug-28 03:29N 43°02' E 007°43'5818.7
2014-Aug-28 00:22N 43°33' E 008°51'1518.1
2014-Aug-27 23:34N 43°41' E 009°09'1918.5
2014-Aug-27 22:33N 43°51' E 009°30'1818.3
2014-Aug-27 21:33N 44°00' E 009°52'6 6.2
2014-Aug-27 20:33N 44°06' E 009°51'0 0.0
2014-Aug-27 19:33N 44°06' E 009°51'0 0.0
2014-Aug-27 18:33N 44°06' E 009°51'0 0.0
2014-Aug-27 17:33N 44°06' E 009°51'0 0.0
2014-Aug-27 16:33N 44°06' E 009°51'0 0.0
2014-Aug-27 15:33N 44°06' E 009°51'0 0.0
2014-Aug-27 14:33N 44°06' E 009°51'0 0.0
2014-Aug-27 13:33N 44°06' E 009°51'0 0.0
2014-Aug-27 12:33N 44°06' E 009°51'0 0.0
2014-Aug-27 11:33N 44°06' E 009°51'0 0.0
2014-Aug-27 10:33N 44°06' E 009°51'5 4.9
2014-Aug-27 09:33N 44°02' E 009°54'9 8.8
2014-Aug-27 08:33N 43°53' E 009°53'1817.6
2014-Aug-27 07:33N 43°37' E 009°46'1717.1
2014-Aug-27 06:33N 43°20' E 009°49'1817.5
2014-Aug-27 05:33N 43°03' E 009°58'1918.6
2014-Aug-27 04:33N 42°45' E 010°01'1918.9
2014-Aug-27 03:33N 42°32' E 010°19'1918.7
2014-Aug-27 02:33N 42°19' E 010°38'4118.2
2014-Aug-27 00:20N 41°50' E 011°17'16218.4
2014-Aug-26 15:33N 39°58' E 013°50'99 2.0
2014-Aug-24 14:33N 38°19' E 013°46'1818.3
2014-Aug-24 13:33N 38°19' E 013°22'1818.2
2014-Aug-24 12:33N 38°20' E 012°59'2017.8
2014-Aug-24 11:25N 38°20' E 012°33'11017.9
2014-Aug-24 05:17N 38°15' E 010°14'5418.2
2014-Aug-24 02:17N 38°07' E 009°05'1418.4
2014-Aug-24 01:32N 38°05' E 008°48'42218.3
2014-Aug-23 02:26N 36°54' E 000°04'3719.4
2014-Aug-23 00:31N 36°44' W 000°41'2318.9
2014-Aug-22 23:17N 36°37' W 001°08'1418.5
2014-Aug-22 22:33N 36°33' W 001°25'1918.6
2014-Aug-22 21:33N 36°27' W 001°47'1918.7
2014-Aug-22 20:33N 36°22' W 002°09'4118.7
2014-Aug-22 18:23N 36°17' W 002°59'11318.0
2014-Aug-22 12:07N 36°00' W 005°17'  
Track history (hours):
 
Tides and Currents Weather Stations Pressure Air Temp Water Temp Dewpoint Dewpoint Depression Visibility Wind Speed Wind Dir Waves Ship Positions

MSC Regina

Last reported at 2014-Sep-01 06:31 UTC. Time now 2014-Sep-01 07:34 UTC.
Position N 37°50' W 008°56'.

Length 259 m; draft 8.6 m.

Type: Ship (hazmat cat A). MMSI: 357332000.

Date/timePositionNaut miles runAvg speedWind from/ knotsBaromVisibWave heightAir tempDewpointWater temp
2014-Sep-01 06:31N 37°50' W 008°56'6 6.4
2014-Sep-01 05:33N 37°44' W 008°56'1010.2
2014-Sep-01 04:33N 37°35' W 009°01'1212.0
2014-Sep-01 03:33N 37°24' W 009°08'1312.9
2014-Sep-01 02:33N 37°12' W 009°14'1312.7
2014-Sep-01 01:33N 37°01' W 009°21'1211.7
2014-Sep-01 00:33N 36°50' W 009°16'1211.9
2014-Aug-31 23:33N 36°43' W 009°04'1212.5
2014-Aug-31 22:33N 36°39' W 008°49'1312.6
2014-Aug-31 21:33N 36°35' W 008°34'1312.5
2014-Aug-31 20:33N 36°31' W 008°20'1312.5
2014-Aug-31 19:33N 36°27' W 008°05'1312.7
2014-Aug-31 18:33N 36°24' W 007°50'1312.9
2014-Aug-31 17:32N 36°19' W 007°34'10912.9
2014-Aug-31 09:07N 36°01' W 005°22'23512.7
2014-Aug-30 14:33N 37°25' W 000°47'1414.1
2014-Aug-30 13:33N 37°34' W 000°34'1413.9
2014-Aug-30 12:33N 37°46' W 000°24'1413.9
2014-Aug-30 11:33N 37°57' W 000°15'6312.6
2014-Aug-30 06:33N 38°57' E 000°13'3315.1
2014-Aug-30 04:22N 39°23' W 000°13'6 5.6
2014-Aug-30 03:17N 39°26' W 000°20'0 0.0
2014-Aug-30 02:32N 39°26' W 000°20'0 0.0
2014-Aug-30 01:32N 39°26' W 000°20'0 0.0
2014-Aug-30 00:32N 39°26' W 000°20'0 0.0
2014-Aug-29 23:32N 39°26' W 000°20'0 0.0
2014-Aug-29 22:20N 39°26' W 000°20'0 0.0
2014-Aug-29 21:11N 39°26' W 000°20'0 0.0
2014-Aug-29 20:26N 39°26' W 000°20'0 0.0
2014-Aug-29 19:26N 39°26' W 000°20'0 0.0
2014-Aug-29 18:32N 39°26' W 000°20'0 0.3
2014-Aug-29 17:32N 39°26' W 000°19'0 0.0
2014-Aug-29 16:32N 39°26' W 000°19'0 0.0
2014-Aug-29 15:32N 39°26' W 000°19'0 0.0
2014-Aug-29 14:29N 39°26' W 000°19'0 0.0
2014-Aug-29 13:32N 39°26' W 000°19'0 0.0
2014-Aug-29 12:32N 39°26' W 000°19'0 0.0
2014-Aug-29 11:08N 39°26' W 000°19'0 0.0
2014-Aug-29 10:32N 39°26' W 000°19'0 0.0
2014-Aug-29 06:32N 39°26' W 000°19'0 0.0
2014-Aug-29 05:34N 39°26' W 000°19'4 4.2
2014-Aug-29 04:34N 39°25' W 000°14'8 8.5
2014-Aug-29 03:34N 39°29' W 000°04'3315.8
2014-Aug-29 01:29N 39°42' E 000°35'1616.3
2014-Aug-29 00:30N 39°50' E 000°53'1616.6
2014-Aug-28 23:33N 39°58' E 001°11'1816.3
2014-Aug-28 22:27N 40°08' E 001°31'1516.3
2014-Aug-28 21:33N 40°16' E 001°47'1716.6
2014-Aug-28 20:33N 40°24' E 002°05'1817.5
2014-Aug-28 19:33N 40°34' E 002°25'1717.5
2014-Aug-28 18:33N 40°43' E 002°44'1717.1
2014-Aug-28 17:33N 40°52' E 003°03'1717.1
2014-Aug-28 16:33N 41°01' E 003°23'1717.1
2014-Aug-28 15:32N 41°10' E 003°42'1717.3
2014-Aug-28 14:33N 41°19' E 004°02'1616.3
2014-Aug-28 13:33N 41°28' E 004°20'2118.6
2014-Aug-28 12:25N 41°39' E 004°44'1315.1
2014-Aug-28 11:33N 41°46' E 004°58'1917.7
2014-Aug-28 10:29N 41°56' E 005°20'1917.9
2014-Aug-28 09:25N 42°06' E 005°42'1416.3
2014-Aug-28 08:33N 42°14' E 005°58'1919.1
2014-Aug-28 07:33N 42°24' E 006°20'1615.9
2014-Aug-28 06:33N 42°32' E 006°38'3718.3
2014-Aug-28 04:34N 42°52' E 007°20'2018.5
2014-Aug-28 03:29N 43°02' E 007°43'5818.7
2014-Aug-28 00:22N 43°33' E 008°51'1518.1
2014-Aug-27 23:34N 43°41' E 009°09'1918.5
2014-Aug-27 22:33N 43°51' E 009°30'1818.3
2014-Aug-27 21:33N 44°00' E 009°52'6 6.2
2014-Aug-27 20:33N 44°06' E 009°51'0 0.0
2014-Aug-27 19:33N 44°06' E 009°51'0 0.0
2014-Aug-27 18:33N 44°06' E 009°51'0 0.0
2014-Aug-27 17:33N 44°06' E 009°51'0 0.0
2014-Aug-27 16:33N 44°06' E 009°51'0 0.0
2014-Aug-27 15:33N 44°06' E 009°51'0 0.0
2014-Aug-27 14:33N 44°06' E 009°51'0 0.0
2014-Aug-27 13:33N 44°06' E 009°51'0 0.0
2014-Aug-27 12:33N 44°06' E 009°51'0 0.0
2014-Aug-27 11:33N 44°06' E 009°51'0 0.0
2014-Aug-27 10:33N 44°06' E 009°51'5 4.9
2014-Aug-27 09:33N 44°02' E 009°54'9 8.8
2014-Aug-27 08:33N 43°53' E 009°53'1817.6
2014-Aug-27 07:33N 43°37' E 009°46'1717.1
2014-Aug-27 06:33N 43°20' E 009°49'1817.5
2014-Aug-27 05:33N 43°03' E 009°58'1918.6
2014-Aug-27 04:33N 42°45' E 010°01'1918.9
2014-Aug-27 03:33N 42°32' E 010°19'1918.7
2014-Aug-27 02:33N 42°19' E 010°38'4118.2
2014-Aug-27 00:20N 41°50' E 011°17'16218.4
2014-Aug-26 15:33N 39°58' E 013°50'99 2.0
2014-Aug-24 14:33N 38°19' E 013°46'1818.3
2014-Aug-24 13:33N 38°19' E 013°22'1818.2
2014-Aug-24 12:33N 38°20' E 012°59'2017.8
2014-Aug-24 11:25N 38°20' E 012°33'11017.9
2014-Aug-24 05:17N 38°15' E 010°14'5418.2
2014-Aug-24 02:17N 38°07' E 009°05'1418.4
2014-Aug-24 01:32N 38°05' E 008°48'42218.3
2014-Aug-23 02:26N 36°54' E 000°04'3719.4
2014-Aug-23 00:31N 36°44' W 000°41'2318.9
2014-Aug-22 23:17N 36°37' W 001°08'1418.5
2014-Aug-22 22:33N 36°33' W 001°25'1918.6
2014-Aug-22 21:33N 36°27' W 001°47'1918.7
2014-Aug-22 20:33N 36°22' W 002°09'4118.7
2014-Aug-22 18:23N 36°17' W 002°59'11318.0
2014-Aug-22 12:07N 36°00' W 005°17'  

Dump ship's entire track history